Time;durP1;ratioP1;P1;durP2;ratioP2;P2;SDS_P1;SDS_P2;PMS_P1;PMS_P2;Temp;Humidity;BMP_temperature;BMP_pressure;BME280_temperature;BME280_humidity;BME280_pressure;Samples;Min_cycle;Max_cycle;Signal;HPM_P1;HPM_P2
2020/12/21 00:00:48;;;;;;;13.68;5.43;;;6.80;99.90;;;;;;5072164;28;20111;-80
2020/12/21 00:03:13;;;;;;;13.27;5.03;;;6.80;99.90;;;;;;5058422;28;20035;-80
2020/12/21 00:05:39;;;;;;;14.68;4.22;;;6.80;99.90;;;;;;5062358;28;20020;-80
2020/12/21 00:08:04;;;;;;;17.60;5.28;;;6.70;99.90;;;;;;5056482;28;20111;-79
2020/12/21 00:10:30;;;;;;;20.67;5.70;;;6.70;99.90;;;;;;5076037;28;20028;-80
2020/12/21 00:12:56;;;;;;;14.52;4.78;;;6.70;99.90;;;;;;5062480;28;20039;-80
2020/12/21 00:15:22;;;;;;;16.10;4.75;;;6.60;99.90;;;;;;5084965;28;20103;-81
2020/12/21 00:17:47;;;;;;;17.73;5.22;;;6.60;99.90;;;;;;5053865;28;20048;-80
2020/12/21 00:20:13;;;;;;;14.07;5.72;;;6.60;99.90;;;;;;5054056;28;20037;-80
2020/12/21 00:22:39;;;;;;;15.35;4.82;;;6.50;99.90;;;;;;5071907;28;20029;-80
2020/12/21 00:25:04;;;;;;;13.95;5.13;;;6.50;99.90;;;;;;5055328;28;20126;-80
2020/12/21 00:27:30;;;;;;;17.05;4.88;;;6.50;99.90;;;;;;5075930;28;20073;-80
2020/12/21 00:29:55;;;;;;;18.52;5.97;;;6.40;99.90;;;;;;5057824;28;20046;-80
2020/12/21 00:32:21;;;;;;;15.23;4.80;;;6.40;99.90;;;;;;5075723;28;20023;-80
2020/12/21 00:34:46;;;;;;;13.05;4.97;;;6.40;99.90;;;;;;5059197;28;20466;-80
2020/12/21 00:37:12;;;;;;;15.57;5.30;;;6.40;99.90;;;;;;5075599;28;20020;-80
2020/12/21 00:39:37;;;;;;;14.18;5.38;;;6.30;99.90;;;;;;5057780;28;20024;-80
2020/12/21 00:42:03;;;;;;;16.98;4.82;;;6.30;99.90;;;;;;5075760;28;20036;-80
2020/12/21 00:44:28;;;;;;;13.05;5.65;;;6.30;99.90;;;;;;5087821;28;20074;-80
2020/12/21 00:46:54;;;;;;;17.55;6.82;;;6.30;99.90;;;;;;5075522;28;20484;-80
2020/12/21 00:49:19;;;;;;;14.60;4.88;;;6.20;99.90;;;;;;5075254;28;20446;-80
2020/12/21 00:51:45;;;;;;;14.43;5.20;;;6.20;99.90;;;;;;5075347;28;20016;-79
2020/12/21 00:54:10;;;;;;;11.27;4.07;;;6.20;99.90;;;;;;5075243;28;20023;-80
2020/12/21 00:56:36;;;;;;;14.27;4.57;;;6.20;99.90;;;;;;5075366;28;20020;-80
2020/12/21 00:59:02;;;;;;;9.98;4.63;;;6.10;99.90;;;;;;5057419;28;20490;-79
2020/12/21 01:01:29;;;;;;;12.20;4.80;;;6.10;99.90;;;;;;5075241;28;20029;-80
2020/12/21 01:03:56;;;;;;;13.23;4.80;;;6.10;99.90;;;;;;5064811;28;20391;-80
2020/12/21 01:06:22;;;;;;;17.23;5.15;;;6.10;99.90;;;;;;5059626;28;20024;-80
2020/12/21 01:08:47;;;;;;;20.40;5.03;;;6.10;99.90;;;;;;5074963;28;20021;-80
2020/12/21 01:11:14;;;;;;;16.48;5.15;;;6.00;99.90;;;;;;5076223;28;20052;-79
2020/12/21 01:13:41;;;;;;;16.08;4.65;;;6.00;99.90;;;;;;5056900;28;20021;-79
2020/12/21 01:16:07;;;;;;;19.38;5.55;;;6.00;99.90;;;;;;5056884;28;20066;-80
2020/12/21 01:18:33;;;;;;;19.02;5.57;;;6.10;99.90;;;;;;5074783;28;20052;-80
2020/12/21 01:20:59;;;;;;;17.52;5.47;;;6.00;99.90;;;;;;5057046;28;20060;-79
2020/12/21 01:23:24;;;;;;;21.10;5.18;;;6.00;99.90;;;;;;5056723;28;20154;-79
2020/12/21 01:25:50;;;;;;;12.48;5.10;;;6.00;99.90;;;;;;5056586;28;20021;-79
2020/12/21 01:28:15;;;;;;;15.05;5.05;;;6.00;99.90;;;;;;5057118;28;20028;-80
2020/12/21 01:30:41;;;;;;;17.98;4.75;;;6.00;99.90;;;;;;5074357;28;20028;-78
2020/12/21 01:33:07;;;;;;;16.00;4.78;;;6.00;99.90;;;;;;5058902;28;20016;-79
2020/12/21 01:35:32;;;;;;;14.68;4.88;;;5.90;99.90;;;;;;5075818;28;20028;-79
2020/12/21 01:37:58;;;;;;;19.80;5.13;;;5.90;99.90;;;;;;5067141;28;20016;-79
2020/12/21 01:40:23;;;;;;;16.55;4.55;;;5.90;99.90;;;;;;5057031;28;20027;-80
2020/12/21 01:42:49;;;;;;;15.50;4.63;;;5.90;99.90;;;;;;5056440;28;20074;-80
2020/12/21 01:45:14;;;;;;;19.50;5.32;;;5.90;99.90;;;;;;5074504;28;20380;-79
2020/12/21 01:47:40;;;;;;;11.98;4.10;;;5.90;99.90;;;;;;5074290;28;20027;-79
2020/12/21 01:50:06;;;;;;;18.27;4.63;;;5.90;99.90;;;;;;5074155;28;20462;-80
2020/12/21 01:52:33;;;;;;;16.60;4.80;;;6.00;99.90;;;;;;5056405;28;20028;-79
2020/12/21 01:55:00;;;;;;;11.18;4.43;;;6.00;99.90;;;;;;5056121;28;20026;-79
2020/12/21 01:57:25;;;;;;;21.38;5.18;;;6.00;99.90;;;;;;5074164;28;20100;-79
2020/12/21 01:59:51;;;;;;;13.82;4.50;;;6.00;99.90;;;;;;5055886;28;20052;-79
2020/12/21 02:02:16;;;;;;;15.77;4.65;;;6.00;99.90;;;;;;5056284;28;20027;-79
2020/12/21 02:04:42;;;;;;;17.95;4.75;;;6.00;99.90;;;;;;5073880;28;20032;-79
2020/12/21 02:07:11;;;;;;;18.70;4.75;;;6.00;99.90;;;;;;5073996;28;20468;-80
2020/12/21 02:09:36;;;;;;;14.38;4.90;;;6.00;99.90;;;;;;5073642;28;20502;-79
2020/12/21 02:12:02;;;;;;;14.35;4.45;;;6.00;99.90;;;;;;5073831;28;20044;-79
2020/12/21 02:14:28;;;;;;;19.45;4.88;;;6.00;99.90;;;;;;5073719;28;20099;-79
2020/12/21 02:16:54;;;;;;;11.70;3.97;;;6.00;99.90;;;;;;5056113;28;20055;-79
2020/12/21 02:19:20;;;;;;;16.73;5.35;;;5.90;99.90;;;;;;5073816;28;20048;-79
2020/12/21 02:21:46;;;;;;;13.32;4.43;;;5.90;99.90;;;;;;5055587;28;20020;-79
2020/12/21 02:24:11;;;;;;;10.55;3.80;;;5.90;99.90;;;;;;5055707;28;20021;-79
2020/12/21 02:26:37;;;;;;;16.30;4.15;;;5.90;99.90;;;;;;5055662;28;20103;-79
2020/12/21 02:29:03;;;;;;;13.45;3.92;;;5.90;99.90;;;;;;5055303;28;20050;-79
2020/12/21 02:31:28;;;;;;;14.23;4.10;;;5.90;99.90;;;;;;5073378;28;20402;-80
2020/12/21 02:33:54;;;;;;;14.43;4.43;;;5.90;99.90;;;;;;5073939;28;20020;-79
2020/12/21 02:36:19;;;;;;;10.85;4.55;;;5.90;99.90;;;;;;5057924;28;20020;-80
2020/12/21 02:38:45;;;;;;;14.85;4.80;;;5.90;99.90;;;;;;5073214;28;20032;-80
2020/12/21 02:41:18;;;;;;;15.20;4.00;;;5.90;99.90;;;;;;5055445;28;20046;-79
2020/12/21 02:43:44;;;;;;;15.63;3.92;;;5.90;99.90;;;;;;5055041;28;20020;-79
2020/12/21 02:46:12;;;;;;;13.40;5.13;;;5.90;99.90;;;;;;5055044;28;20021;-79
2020/12/21 02:48:38;;;;;;;16.13;4.10;;;5.80;99.90;;;;;;5072952;28;20031;-80
2020/12/21 02:51:03;;;;;;;12.23;4.10;;;5.80;99.90;;;;;;5072903;28;20029;-79
2020/12/21 02:53:29;;;;;;;14.27;5.03;;;5.80;99.90;;;;;;5055153;28;20020;-80
2020/12/21 02:55:55;;;;;;;13.27;4.32;;;5.80;99.90;;;;;;5054797;28;20017;-80
2020/12/21 02:58:21;;;;;;;17.55;4.85;;;5.80;99.90;;;;;;5072971;28;20389;-79
2020/12/21 03:00:47;;;;;;;14.43;4.13;;;5.80;99.90;;;;;;5072906;28;20090;-79
2020/12/21 03:03:13;;;;;;;14.18;4.25;;;5.80;99.90;;;;;;5054796;28;20016;-80
2020/12/21 03:05:39;;;;;;;15.57;4.07;;;5.80;99.90;;;;;;5054812;28;20062;-80
2020/12/21 03:08:06;;;;;;;18.17;3.80;;;5.70;99.90;;;;;;5054717;28;20021;-80
2020/12/21 03:10:32;;;;;;;14.57;4.57;;;5.80;99.90;;;;;;5076468;28;20142;-79
2020/12/21 03:12:58;;;;;;;16.35;4.63;;;5.80;99.90;;;;;;5083289;28;20073;-80
2020/12/21 03:15:24;;;;;;;16.80;4.72;;;5.80;99.90;;;;;;5056548;28;20103;-80
2020/12/21 03:17:49;;;;;;;14.15;4.20;;;5.80;99.90;;;;;;5054607;28;20017;-80
2020/12/21 03:20:15;;;;;;;10.70;4.32;;;5.70;99.90;;;;;;5072477;28;20104;-79
2020/12/21 03:22:41;;;;;;;11.98;3.58;;;5.70;99.90;;;;;;5054634;28;20028;-80
2020/12/21 03:25:06;;;;;;;12.02;3.72;;;5.70;99.90;;;;;;5054950;28;20028;-80
2020/12/21 03:27:32;;;;;;;13.98;3.92;;;5.70;99.90;;;;;;5054245;28;20071;-79
2020/12/21 03:29:58;;;;;;;17.00;4.10;;;5.70;99.90;;;;;;5072414;28;20103;-79
2020/12/21 03:32:24;;;;;;;22.77;5.22;;;5.70;99.90;;;;;;5054352;28;20020;-79
2020/12/21 03:34:52;;;;;;;14.48;3.90;;;5.70;99.90;;;;;;5055753;28;20082;-80
2020/12/21 03:37:18;;;;;;;13.73;4.22;;;5.70;99.90;;;;;;5054220;28;20027;-79
2020/12/21 03:39:44;;;;;;;13.60;4.00;;;5.70;99.90;;;;;;5054284;28;20480;-79
2020/12/21 03:42:09;;;;;;;19.92;4.70;;;5.70;99.90;;;;;;5053913;28;20056;-79
2020/12/21 03:44:35;;;;;;;13.13;3.78;;;5.70;99.90;;;;;;5072311;28;20031;-80
2020/12/21 03:47:00;;;;;;;13.10;3.67;;;5.70;99.90;;;;;;5054178;28;20471;-80
2020/12/21 03:49:26;;;;;;;15.85;3.25;;;5.70;99.90;;;;;;5071819;28;20129;-79
2020/12/21 03:51:51;;;;;;;10.07;3.17;;;5.70;99.90;;;;;;5074937;28;20394;-80
2020/12/21 03:54:17;;;;;;;17.42;4.60;;;5.70;99.90;;;;;;5072246;28;20024;-79
2020/12/21 03:56:46;;;;;;;11.50;3.90;;;5.70;99.90;;;;;;5071692;28;20496;-78
2020/12/21 03:59:11;;;;;;;12.40;3.63;;;5.60;99.90;;;;;;5057091;28;20034;-80
2020/12/21 04:01:38;;;;;;;13.15;3.42;;;5.60;99.90;;;;;;5072431;28;20028;-79
2020/12/21 04:04:06;;;;;;;16.58;3.63;;;5.60;99.90;;;;;;5062525;28;20054;-79
2020/12/21 04:06:33;;;;;;;12.90;3.30;;;5.60;99.90;;;;;;5073152;28;20076;-79
2020/12/21 04:08:58;;;;;;;11.98;3.08;;;5.60;99.90;;;;;;5054252;28;20392;-79
2020/12/21 04:11:24;;;;;;;12.75;3.95;;;5.60;99.90;;;;;;5053772;28;20023;-79
2020/12/21 04:13:49;;;;;;;14.73;4.65;;;5.60;99.90;;;;;;5053847;28;20017;-79
2020/12/21 04:16:15;;;;;;;12.80;3.08;;;5.60;99.90;;;;;;5054019;28;20020;-79
2020/12/21 04:18:41;;;;;;;17.90;4.55;;;5.60;99.90;;;;;;5053795;28;20487;-79
2020/12/21 04:21:10;;;;;;;9.45;3.35;;;5.60;99.90;;;;;;5053808;28;20052;-79
2020/12/21 04:23:36;;;;;;;13.10;3.10;;;5.50;99.90;;;;;;5053770;28;20024;-79
2020/12/21 04:26:02;;;;;;;11.65;2.85;;;5.50;99.90;;;;;;5083745;28;20099;-80
2020/12/21 04:28:27;;;;;;;15.77;4.38;;;5.50;99.90;;;;;;5067553;28;20020;-79
2020/12/21 04:30:53;;;;;;;16.95;3.30;;;5.50;99.90;;;;;;5053704;28;20027;-79
2020/12/21 04:33:18;;;;;;;9.95;3.58;;;5.50;99.90;;;;;;5053823;28;20430;-79
2020/12/21 04:35:44;;;;;;;11.15;3.40;;;5.60;99.90;;;;;;5053504;28;20020;-79
2020/12/21 04:38:09;;;;;;;12.35;3.17;;;5.60;99.90;;;;;;5053630;28;20020;-79
2020/12/21 04:40:35;;;;;;;13.60;3.22;;;5.60;99.90;;;;;;5053596;28;20063;-79
2020/12/21 04:43:01;;;;;;;14.85;2.92;;;5.60;99.90;;;;;;5053689;28;20025;-79
2020/12/21 04:45:28;;;;;;;13.07;3.22;;;5.60;99.90;;;;;;5071588;28;20016;-80
2020/12/21 04:47:55;;;;;;;10.20;3.03;;;5.70;99.90;;;;;;5053486;28;20069;-80
2020/12/21 04:50:20;;;;;;;16.80;3.58;;;5.60;99.90;;;;;;5071398;28;20040;-79
2020/12/21 04:52:50;;;;;;;14.63;3.10;;;5.70;99.90;;;;;;5055961;28;20016;-79
2020/12/21 04:55:22;;;;;;;12.60;2.97;;;5.70;99.90;;;;;;5053662;28;20016;-79
2020/12/21 04:58:01;;;;;;;9.98;2.63;;;5.80;99.90;;;;;;5053122;28;20510;-79
2020/12/21 05:00:29;;;;;;;17.02;2.92;;;5.80;99.90;;;;;;5053446;28;20089;-80
2020/12/21 05:02:54;;;;;;;10.23;1.98;;;5.90;99.90;;;;;;5053372;28;20480;-79
2020/12/21 05:05:37;;;;;;;13.68;2.50;;;5.90;99.90;;;;;;5053503;28;20024;-79
2020/12/21 05:08:22;;;;;;;10.38;2.90;;;5.90;99.90;;;;;;5055189;28;20503;-79
2020/12/21 05:10:57;;;;;;;8.93;2.55;;;5.90;99.90;;;;;;5053269;28;20040;-79
2020/12/21 05:13:23;;;;;;;8.75;2.50;;;5.90;99.90;;;;;;5056566;28;20013;-79
2020/12/21 05:15:52;;;;;;;13.43;2.53;;;6.00;99.90;;;;;;5074937;28;20017;-79
2020/12/21 05:18:22;;;;;;;8.70;2.50;;;6.00;99.90;;;;;;5074929;28;20020;-80
2020/12/21 05:20:57;;;;;;;9.13;2.55;;;6.00;99.90;;;;;;5075115;28;20024;-80
2020/12/21 05:23:23;;;;;;;12.43;2.95;;;6.10;99.90;;;;;;5056943;28;20020;-80
2020/12/21 05:26:03;;;;;;;13.55;3.42;;;6.10;99.90;;;;;;5056801;28;20086;-79
2020/12/21 05:28:29;;;;;;;;;;;6.10;99.90;;;;;;5074890;28;20028;-80
2020/12/21 05:31:00;;;;;;;13.38;2.42;;;6.10;99.90;;;;;;5056674;28;19914;-79
2020/12/21 05:33:26;;;;;;;12.20;2.92;;;6.10;99.90;;;;;;5056654;28;20040;-79
2020/12/21 05:35:56;;;;;;;9.15;2.65;;;6.10;99.90;;;;;;5058142;28;20487;-79
2020/12/21 05:38:24;;;;;;;10.38;3.17;;;6.20;99.90;;;;;;5077345;28;20028;-79
2020/12/21 05:40:50;;;;;;;10.38;2.85;;;6.20;99.90;;;;;;5067726;28;20028;-79
2020/12/21 05:43:32;;;;;;;15.55;2.47;;;6.20;99.90;;;;;;5056598;28;20078;-79
2020/12/21 05:46:04;;;;;;;10.93;2.85;;;6.20;99.90;;;;;;5071668;28;20020;-79
2020/12/21 05:48:38;;;;;;;11.65;2.42;;;6.20;99.90;;;;;;5073567;28;20028;-80
2020/12/21 05:51:06;;;;;;;13.43;2.58;;;6.20;99.90;;;;;;5058648;28;20024;-79
2020/12/21 05:53:37;;;;;;;13.20;2.70;;;6.20;99.90;;;;;;5056283;28;20017;-79
2020/12/21 05:56:03;;;;;;;10.00;2.85;;;6.20;99.90;;;;;;5056336;28;20464;-79
2020/12/21 05:58:31;;;;;;;12.35;2.35;;;6.30;99.90;;;;;;5056169;28;20384;-79
2020/12/21 06:01:05;;;;;;;10.93;2.60;;;6.30;99.90;;;;;;5056082;28;20390;-78
2020/12/21 06:03:51;;;;;;;12.50;2.50;;;6.20;99.90;;;;;;5056180;28;20033;-79
2020/12/21 06:06:24;;;;;;;10.98;2.30;;;6.20;99.90;;;;;;5056243;28;20403;-79
2020/12/21 06:08:52;;;;;;;11.32;2.88;;;6.10;99.90;;;;;;5074023;28;20381;-80
2020/12/21 06:11:24;;;;;;;15.80;3.33;;;6.10;99.90;;;;;;5055916;28;20081;-80
2020/12/21 06:14:01;;;;;;;15.75;3.10;;;6.10;99.90;;;;;;5075170;28;20032;-79
2020/12/21 06:16:29;;;;;;;13.68;3.97;;;6.00;99.90;;;;;;5056074;28;20088;-79
2020/12/21 06:18:59;;;;;;;10.25;2.88;;;6.00;99.90;;;;;;5055713;28;20024;-80
2020/12/21 06:21:26;;;;;;;10.90;3.08;;;6.00;99.90;;;;;;5055706;28;20120;-80
2020/12/21 06:23:52;;;;;;;10.93;2.70;;;5.90;99.90;;;;;;5055660;28;20029;-79
2020/12/21 06:26:17;;;;;;;10.57;2.88;;;5.90;99.90;;;;;;5073093;28;20027;-79
2020/12/21 06:28:43;;;;;;;10.48;3.40;;;5.90;99.90;;;;;;5074452;28;20106;-80
2020/12/21 06:31:14;;;;;;;11.25;3.75;;;5.90;99.90;;;;;;5056581;28;20094;-79
2020/12/21 06:33:40;;;;;;;13.18;3.03;;;5.90;99.90;;;;;;5056787;28;20471;-79
2020/12/21 06:36:05;;;;;;;12.93;3.42;;;5.80;99.90;;;;;;5073532;28;20532;-79
2020/12/21 06:38:45;;;;;;;11.25;3.55;;;5.80;99.90;;;;;;5056194;28;20024;-79
2020/12/21 06:41:19;;;;;;;8.90;2.65;;;5.90;99.90;;;;;;5056162;28;20162;-79
2020/12/21 06:44:02;;;;;;;13.95;3.55;;;5.80;99.90;;;;;;5071835;28;20028;-79
2020/12/21 06:46:28;;;;;;;12.48;3.30;;;5.90;99.90;;;;;;5073909;28;20017;-80
2020/12/21 06:49:03;;;;;;;15.00;3.85;;;5.80;99.90;;;;;;5073742;28;20051;-80
2020/12/21 06:51:29;;;;;;;13.43;3.85;;;5.80;99.90;;;;;;5073854;28;20044;-79
2020/12/21 06:53:59;;;;;;;11.88;3.55;;;5.80;99.90;;;;;;5055949;28;20028;-80
2020/12/21 06:56:26;;;;;;;10.75;2.90;;;5.80;99.90;;;;;;5056015;28;20027;-80
2020/12/21 06:58:59;;;;;;;10.23;3.33;;;5.80;99.90;;;;;;5055773;28;20365;-80
2020/12/21 07:01:26;;;;;;;9.98;3.15;;;5.80;99.90;;;;;;5055762;28;20025;-80
2020/12/21 07:03:52;;;;;;;12.02;3.30;;;5.80;99.90;;;;;;5055741;28;20044;-80
2020/12/21 07:06:19;;;;;;;16.05;3.67;;;5.80;99.90;;;;;;5073601;28;20056;-80
2020/12/21 07:08:45;;;;;;;14.77;3.85;;;5.80;99.90;;;;;;5068734;28;20034;-79
2020/12/21 07:11:21;;;;;;;12.05;2.90;;;5.80;99.90;;;;;;5075614;28;20111;-80
2020/12/21 07:13:49;;;;;;;13.63;3.33;;;5.80;99.90;;;;;;5075525;28;20031;-80
2020/12/21 07:16:16;;;;;;;13.60;3.40;;;5.90;99.90;;;;;;5075456;28;20107;-79
2020/12/21 07:18:42;;;;;;;9.50;2.65;;;5.90;99.90;;;;;;5075317;28;20048;-79
2020/12/21 07:21:09;;;;;;;13.05;3.30;;;5.90;99.90;;;;;;5069421;28;20068;-79
2020/12/21 07:23:35;;;;;;;13.85;3.50;;;5.90;99.90;;;;;;5066680;28;20134;-79
2020/12/21 07:26:01;;;;;;;10.25;3.17;;;6.00;99.90;;;;;;5075519;28;20483;-79
2020/12/21 07:28:30;;;;;;;13.65;3.58;;;6.00;99.90;;;;;;5075324;28;20035;-79
2020/12/21 07:31:10;;;;;;;15.68;3.22;;;6.10;99.90;;;;;;5093331;28;20383;-79
2020/12/21 07:33:49;;;;;;;14.52;3.42;;;6.10;99.90;;;;;;5093263;28;20024;-79
2020/12/21 07:36:19;;;;;;;10.15;2.63;;;6.10;99.90;;;;;;5061026;28;20020;-79
2020/12/21 07:38:45;;;;;;;10.70;3.20;;;6.10;99.90;;;;;;5073110;28;20047;-79
2020/12/21 07:41:11;;;;;;;14.50;3.47;;;6.20;99.90;;;;;;5073069;28;20465;-79
2020/12/21 07:43:49;;;;;;;14.80;3.97;;;6.20;99.90;;;;;;5060730;28;20430;-79
2020/12/21 07:46:21;;;;;;;12.50;3.20;;;6.20;99.90;;;;;;5081533;28;20031;-79
2020/12/21 07:48:48;;;;;;;16.50;4.13;;;6.20;99.90;;;;;;5064003;28;20048;-79
2020/12/21 07:51:18;;;;;;;13.15;3.28;;;6.30;99.90;;;;;;5057475;28;20031;-79
2020/12/21 07:53:44;;;;;;;13.02;3.13;;;6.30;99.90;;;;;;5072539;28;20025;-80
2020/12/21 07:56:19;;;;;;;14.77;3.97;;;6.30;99.90;;;;;;5056636;28;20024;-79
2020/12/21 07:58:45;;;;;;;15.00;3.03;;;6.30;99.90;;;;;;5084157;28;20032;-79
2020/12/21 08:01:11;;;;;;;13.15;3.50;;;6.30;99.90;;;;;;5088313;28;20106;-79
2020/12/21 08:03:40;;;;;;;12.07;3.42;;;6.30;99.90;;;;;;5073860;28;20475;-79
2020/12/21 08:06:12;;;;;;;13.70;3.00;;;6.40;99.90;;;;;;5074443;28;20024;-78
2020/12/21 08:08:39;;;;;;;8.40;2.92;;;6.40;99.90;;;;;;5083992;28;20514;-78
2020/12/21 08:11:10;;;;;;;8.07;2.78;;;6.40;99.90;;;;;;5065110;28;20028;-78
2020/12/21 08:13:36;;;;;;;14.02;3.05;;;6.50;99.90;;;;;;5069614;28;20470;-78
2020/12/21 08:16:09;;;;;;;10.98;3.53;;;6.50;99.90;;;;;;5074273;28;20491;-78
2020/12/21 08:18:35;;;;;;;9.00;2.90;;;6.60;99.90;;;;;;5071948;28;20352;-78
2020/12/21 08:21:01;;;;;;;8.45;2.78;;;6.60;99.90;;;;;;5068727;28;20020;-78
2020/12/21 08:23:32;;;;;;;11.60;2.58;;;6.60;99.90;;;;;;5054538;28;20045;-78
2020/12/21 08:25:58;;;;;;;8.52;3.00;;;6.70;99.90;;;;;;5072623;28;20028;-78
2020/12/21 08:28:27;;;;;;;10.98;2.97;;;6.70;99.90;;;;;;5054583;28;20054;-78
2020/12/21 08:31:25;;;;;;;10.25;2.58;;;6.70;99.90;;;;;;5077740;28;20383;-78
2020/12/21 08:34:03;;;;;;;15.10;3.33;;;6.80;99.90;;;;;;5020083;28;20028;-78
2020/12/21 08:36:34;;;;;;;9.52;3.33;;;6.80;99.90;;;;;;5058562;28;20055;-78
2020/12/21 08:39:15;;;;;;;11.02;2.92;;;6.80;99.90;;;;;;5054426;28;20024;-78
2020/12/21 08:41:43;;;;;;;13.02;2.80;;;6.90;99.90;;;;;;5072265;28;20020;-78
2020/12/21 08:44:15;;;;;;;9.07;2.83;;;6.90;99.90;;;;;;5072324;28;20044;-78
2020/12/21 08:46:45;;;;;;;16.55;3.63;;;7.00;99.90;;;;;;5056839;28;20020;-78
2020/12/21 08:49:10;;;;;;;8.88;3.13;;;7.00;99.90;;;;;;5075815;28;20507;-78
2020/12/21 08:51:36;;;;;;;9.75;2.42;;;7.00;99.90;;;;;;5077718;28;20055;-78
2020/12/21 08:54:01;;;;;;;12.43;3.15;;;7.00;99.90;;;;;;5097614;28;20472;-79
2020/12/21 08:56:27;;;;;;;11.32;2.60;;;7.10;99.90;;;;;;5079843;28;20024;-79
2020/12/21 08:58:52;;;;;;;9.18;2.53;;;7.10;99.90;;;;;;5099039;28;20532;-78
2020/12/21 09:01:18;;;;;;;8.13;2.20;;;7.10;99.90;;;;;;5098012;28;20026;-78
2020/12/21 09:03:45;;;;;;;16.13;3.03;;;7.20;99.90;;;;;;5097673;28;20107;-79
2020/12/21 09:06:16;;;;;;;9.13;3.03;;;7.20;99.90;;;;;;5077913;28;20101;-78
2020/12/21 09:08:42;;;;;;;9.45;2.55;;;7.20;99.90;;;;;;5095899;28;20031;-79
2020/12/21 09:11:07;;;;;;;12.60;2.72;;;7.20;99.90;;;;;;5095816;28;20024;-78
2020/12/21 09:13:34;;;;;;;7.30;2.33;;;7.30;99.90;;;;;;5077823;28;20028;-78
2020/12/21 09:16:01;;;;;;;15.80;3.67;;;7.30;99.90;;;;;;5077688;28;20024;-79
2020/12/21 09:18:26;;;;;;;13.07;2.92;;;7.40;99.90;;;;;;5077121;28;20032;-79
2020/12/21 09:20:52;;;;;;;13.35;2.58;;;7.40;99.90;;;;;;5095680;28;20099;-78
2020/12/21 09:23:17;;;;;;;12.40;2.38;;;7.50;99.90;;;;;;5077797;28;20028;-79
2020/12/21 09:25:43;;;;;;;9.35;2.58;;;7.50;99.90;;;;;;5095321;28;20020;-79
2020/12/21 09:28:08;;;;;;;11.93;2.45;;;7.50;99.90;;;;;;5077608;28;20028;-79
2020/12/21 09:30:34;;;;;;;10.05;2.33;;;7.60;99.90;;;;;;5077258;28;20460;-79
2020/12/21 09:33:00;;;;;;;6.90;2.35;;;7.60;99.90;;;;;;5095740;28;20028;-78
2020/12/21 09:35:26;;;;;;;12.07;2.65;;;7.60;99.90;;;;;;5077151;28;20016;-79
2020/12/21 09:37:52;;;;;;;13.50;3.42;;;7.60;99.90;;;;;;5095583;28;20376;-78
2020/12/21 09:40:17;;;;;;;12.13;3.50;;;7.60;99.90;;;;;;5077098;28;20042;-79
2020/12/21 09:42:43;;;;;;;8.77;2.53;;;7.60;99.90;;;;;;5095437;28;20028;-79
2020/12/21 09:45:08;;;;;;;6.00;2.35;;;7.70;99.90;;;;;;5077202;28;20543;-79
2020/12/21 09:47:34;;;;;;;9.27;2.60;;;7.70;99.90;;;;;;5077304;28;20170;-78
2020/12/21 09:49:59;;;;;;;7.60;2.35;;;7.70;99.90;;;;;;5076704;28;20113;-78
2020/12/21 09:52:25;;;;;;;19.00;3.10;;;7.70;99.90;;;;;;5077159;28;20023;-78
2020/12/21 09:54:50;;;;;;;8.13;2.22;;;7.70;99.90;;;;;;5077038;28;20023;-79
2020/12/21 09:57:16;;;;;;;8.98;2.72;;;7.70;99.90;;;;;;5076226;28;20020;-78
2020/12/21 09:59:41;;;;;;;11.38;2.60;;;7.80;99.90;;;;;;5094101;28;20020;-78
2020/12/21 10:02:07;;;;;;;9.70;2.20;;;7.80;99.90;;;;;;5094747;28;20048;-78
2020/12/21 10:04:33;;;;;;;13.57;2.70;;;7.80;99.90;;;;;;5076529;28;20024;-79
2020/12/21 10:06:58;;;;;;;10.38;2.70;;;7.80;99.90;;;;;;5077033;28;20027;-78
2020/12/21 10:09:24;;;;;;;14.38;2.63;;;7.80;99.90;;;;;;5094859;28;20043;-78
2020/12/21 10:11:52;;;;;;;10.30;2.83;;;7.80;99.90;;;;;;5094816;28;20111;-78
2020/12/21 10:14:18;;;;;;;11.82;3.03;;;7.70;99.90;;;;;;5076775;28;20019;-78
2020/12/21 10:16:43;;;;;;;17.58;3.05;;;7.60;99.90;;;;;;5075164;28;20041;-78
2020/12/21 10:19:09;;;;;;;7.10;3.08;;;7.60;99.90;;;;;;5094514;28;20035;-78
2020/12/21 10:21:34;;;;;;;12.93;3.70;;;7.60;99.90;;;;;;5076540;28;20035;-79
2020/12/21 10:24:00;;;;;;;13.55;3.60;;;7.60;99.90;;;;;;5076443;28;20016;-79
2020/12/21 10:26:25;;;;;;;10.70;3.30;;;7.60;99.90;;;;;;5076339;28;20534;-79
2020/12/21 10:28:51;;;;;;;11.60;3.20;;;7.60;99.90;;;;;;5094635;28;20038;-78
2020/12/21 10:31:17;;;;;;;11.82;3.00;;;7.60;99.90;;;;;;5094032;28;20498;-79
2020/12/21 10:33:42;;;;;;;10.98;3.58;;;7.60;99.90;;;;;;5094170;28;20387;-79
2020/12/21 10:36:12;;;;;;;13.07;4.13;;;7.50;99.90;;;;;;5071736;28;20103;-79
2020/12/21 10:38:38;;;;;;;11.05;3.75;;;7.50;99.90;;;;;;5094364;28;20035;-78
2020/12/21 10:41:03;;;;;;;13.38;3.95;;;7.50;99.90;;;;;;5067099;28;20032;-78
2020/12/21 10:43:29;;;;;;;14.82;3.63;;;7.50;99.90;;;;;;5075754;28;20098;-78
2020/12/21 10:45:54;;;;;;;10.38;3.70;;;7.60;99.90;;;;;;5082707;28;20499;-78
2020/12/21 10:48:20;;;;;;;11.27;3.45;;;7.50;99.90;;;;;;5084377;28;20024;-78
2020/12/21 10:50:46;;;;;;;8.13;3.20;;;7.60;99.90;;;;;;5064613;28;20051;-78
2020/12/21 10:53:12;;;;;;;15.70;4.28;;;7.50;99.90;;;;;;5064557;28;20020;-78
2020/12/21 10:55:37;;;;;;;12.20;4.00;;;7.50;99.90;;;;;;5083064;28;20099;-79
2020/12/21 10:58:03;;;;;;;11.30;3.67;;;7.50;99.90;;;;;;5067044;28;20016;-78
2020/12/21 11:00:28;;;;;;;11.07;3.10;;;7.50;99.90;;;;;;5065141;28;20458;-78
2020/12/21 11:02:54;;;;;;;12.73;4.22;;;7.50;99.90;;;;;;5063498;28;20028;-78
2020/12/21 11:05:21;;;;;;;10.18;3.83;;;7.50;99.90;;;;;;5084251;28;20399;-78
2020/12/21 11:07:46;;;;;;;14.65;4.00;;;7.50;99.90;;;;;;5078475;28;20116;-78
2020/12/21 11:10:12;;;;;;;11.23;3.67;;;7.50;99.90;;;;;;5072477;28;20095;-78
2020/12/21 11:12:37;;;;;;;16.23;5.57;;;7.50;99.90;;;;;;5058320;28;20387;-78
2020/12/21 11:15:04;;;;;;;12.23;4.22;;;7.50;99.90;;;;;;5064998;28;20463;-79
2020/12/21 11:17:30;;;;;;;11.82;4.15;;;7.50;99.90;;;;;;5089550;28;20447;-78
2020/12/21 11:19:58;;;;;;;15.90;4.35;;;7.50;99.90;;;;;;5093500;28;20028;-79
2020/12/21 11:22:23;;;;;;;10.45;4.13;;;7.50;99.90;;;;;;5074980;28;20078;-78
2020/12/21 11:24:48;;;;;;;12.90;4.40;;;7.50;99.90;;;;;;5075471;28;20024;-78
2020/12/21 11:27:17;;;;;;;11.88;4.43;;;7.50;99.90;;;;;;5093558;28;20024;-78
2020/12/21 11:29:42;;;;;;;11.70;5.03;;;7.50;99.90;;;;;;5075623;28;20360;-78
2020/12/21 11:32:08;;;;;;;11.13;5.00;;;7.50;99.90;;;;;;5093259;28;20027;-78
2020/12/21 11:34:34;;;;;;;14.82;6.15;;;7.50;99.90;;;;;;5075980;28;20475;-78
2020/12/21 11:36:59;;;;;;;13.18;4.88;;;7.50;99.90;;;;;;5072907;28;20032;-78
2020/12/21 11:39:25;;;;;;;15.07;5.32;;;7.50;99.90;;;;;;5073141;28;20036;-78
2020/12/21 11:41:50;;;;;;;21.48;6.93;;;7.50;99.90;;;;;;5058845;28;20468;-79
2020/12/21 11:44:16;;;;;;;16.48;5.72;;;7.50;99.90;;;;;;5075167;28;20055;-79
2020/12/21 11:46:41;;;;;;;14.20;5.97;;;7.50;99.90;;;;;;5093047;28;20028;-78
2020/12/21 11:49:07;;;;;;;18.15;7.10;;;7.50;99.90;;;;;;5092983;28;20052;-78
2020/12/21 11:51:32;;;;;;;19.05;6.35;;;7.50;99.90;;;;;;5092709;28;20063;-79
2020/12/21 11:53:58;;;;;;;19.52;7.53;;;7.50;99.90;;;;;;5074666;28;20498;-78
2020/12/21 11:56:23;;;;;;;14.95;6.03;;;7.50;99.90;;;;;;5086590;28;20052;-79
2020/12/21 11:58:49;;;;;;;17.70;6.63;;;7.50;99.90;;;;;;5063370;28;20107;-79
2020/12/21 12:01:18;;;;;;;16.70;6.63;;;7.50;99.90;;;;;;5066256;28;20028;-79
2020/12/21 12:03:44;;;;;;;16.60;6.78;;;7.50;99.90;;;;;;5059807;28;20025;-79
2020/12/21 12:06:10;;;;;;;16.77;6.63;;;7.50;99.90;;;;;;5060306;28;20032;-79
2020/12/21 12:08:35;;;;;;;18.63;6.75;;;7.50;99.90;;;;;;5072748;28;20028;-79
2020/12/21 12:11:02;;;;;;;16.65;6.65;;;7.50;99.90;;;;;;5058376;28;20039;-79
2020/12/21 12:13:27;;;;;;;15.25;6.88;;;7.50;99.90;;;;;;5061075;28;20444;-79
2020/12/21 12:15:53;;;;;;;16.63;6.60;;;7.50;99.90;;;;;;5076875;28;20063;-79
2020/12/21 12:18:18;;;;;;;19.90;7.25;;;7.50;99.90;;;;;;5056549;28;20020;-79
2020/12/21 12:20:44;;;;;;;10.45;5.95;;;7.50;99.90;;;;;;5057564;28;20073;-79
2020/12/21 12:23:09;;;;;;;11.65;5.78;;;7.50;99.90;;;;;;5068462;28;20073;-78
2020/12/21 12:25:35;;;;;;;13.77;6.78;;;7.50;99.90;;;;;;5058055;28;20032;-78
2020/12/21 12:28:01;;;;;;;12.50;6.85;;;7.60;99.90;;;;;;5058220;28;20609;-78
2020/12/21 12:30:27;;;;;;;15.27;7.13;;;7.50;99.90;;;;;;5059505;28;20043;-78
2020/12/21 12:32:52;;;;;;;14.20;6.97;;;7.60;99.90;;;;;;5081498;28;20025;-78
2020/12/21 12:35:18;;;;;;;13.52;7.00;;;7.60;99.90;;;;;;5059772;28;20479;-79
2020/12/21 12:37:43;;;;;;;19.20;7.40;;;7.60;99.90;;;;;;5056527;28;20024;-79
2020/12/21 12:40:09;;;;;;;20.58;7.65;;;7.60;99.90;;;;;;5057230;28;20056;-78
2020/12/21 12:42:34;;;;;;;16.33;7.03;;;7.60;99.90;;;;;;5069869;28;20082;-78
2020/12/21 12:45:00;;;;;;;18.35;7.72;;;7.50;99.90;;;;;;5057146;28;20028;-79
2020/12/21 12:47:25;;;;;;;15.27;6.70;;;7.60;99.90;;;;;;5057356;28;20025;-78